Time;durP1;ratioP1;P1;durP2;ratioP2;P2;SDS_P1;SDS_P2;PMS_P1;PMS_P2;Temp;Humidity;BMP_temperature;BMP_pressure;BME280_temperature;BME280_humidity;BME280_pressure;Samples;Min_cycle;Max_cycle;Signal;HPM_P1;HPM_P2
2023/11/26 00:15:36;;;;;;;7.00;2.10;;;;;;;;;;5114390;27;20635;-75
2023/11/26 00:18:11;;;;;;;5.20;1.60;;;;;;;;;;5113622;28;20520;-74
2023/11/26 00:20:50;;;;;;;3.73;1.97;;;;;;;;;;5115659;28;20477;-76
2023/11/26 00:23:20;;;;;;;7.80;2.37;;;;;;;;;;5114585;28;20729;-76
2023/11/26 00:25:50;;;;;;;5.03;1.80;;;;;;;;;;5120338;28;20474;-76
2023/11/26 00:34:02;;;;;;;8.37;1.90;;;;;;;;;;5111999;28;20478;-76
2023/11/26 00:36:37;;;;;;;3.50;1.90;;;;;;;;;;5115834;28;20443;-73
2023/11/26 00:39:11;;;;;;;4.00;2.17;;;;;;;;;;5118084;28;20481;-75
2023/11/26 00:41:51;;;;;;;4.23;2.43;;;;;;;;;;5115565;28;20465;-75
2023/11/26 00:44:25;;;;;;;4.57;2.20;;;;;;;;;;5115944;28;20477;-75
2023/11/26 00:50:10;;;;;;;8.33;2.47;;;;;;;;;;5107947;28;20716;-74
2023/11/26 00:53:09;;;;;;;5.73;2.27;;;;;;;;;;5116921;28;20871;-75
2023/11/26 00:55:45;;;;;;;6.07;2.90;;;;;;;;;;5108870;28;20458;-76
2023/11/26 00:58:20;;;;;;;4.57;2.83;;;;;;;;;;5111526;28;20462;-76
2023/11/26 01:00:57;;;;;;;5.13;1.87;;;;;;;;;;5118105;28;20470;-76
2023/11/26 01:03:28;;;;;;;5.70;2.43;;;;;;;;;;5118352;28;20455;-74
2023/11/26 01:06:03;;;;;;;7.73;2.50;;;;;;;;;;5116338;28;20447;-76
2023/11/26 01:08:30;;;;;;;4.00;2.47;;;;;;;;;;5117862;28;20507;-75
2023/11/26 01:11:04;;;;;;;7.23;2.57;;;;;;;;;;5115774;28;20486;-75
2023/11/26 01:13:36;;;;;;;5.20;2.30;;;;;;;;;;5121347;27;20486;-75
2023/11/26 01:18:48;;;;;;;5.60;1.73;;;;;;;;;;5134465;27;20430;-74
2023/11/26 01:21:19;;;;;;;4.33;1.83;;;;;;;;;;5139288;27;20772;-76
2023/11/26 01:23:47;;;;;;;4.50;1.70;;;;;;;;;;5136655;27;20877;-76
2023/11/26 01:26:20;;;;;;;3.67;1.80;;;;;;;;;;5124730;27;20511;-76
2023/11/26 01:28:49;;;;;;;5.43;1.90;;;;;;;;;;5124766;28;20435;-74
2023/11/26 01:31:26;;;;;;;4.33;2.10;;;;;;;;;;5122633;28;20458;-75
2023/11/26 01:33:54;;;;;;;3.67;1.90;;;;;;;;;;5125416;28;20479;-74
2023/11/26 01:36:23;;;;;;;3.27;1.50;;;;;;;;;;5122116;28;20444;-75
2023/11/26 01:38:51;;;;;;;4.57;1.87;;;;;;;;;;5122247;28;20606;-76
2023/11/26 01:41:19;;;;;;;3.30;1.90;;;;;;;;;;5112299;28;20646;-75
2023/11/26 01:43:47;;;;;;;4.13;2.00;;;;;;;;;;5120839;28;20457;-76
2023/11/26 01:46:15;;;;;;;3.50;1.60;;;;;;;;;;5124198;28;20466;-76
2023/11/26 01:48:44;;;;;;;6.33;2.13;;;;;;;;;;5124413;28;20459;-76
2023/11/26 01:51:12;;;;;;;4.80;1.80;;;;;;;;;;5123660;28;20453;-75
2023/11/26 01:53:44;;;;;;;4.30;1.50;;;;;;;;;;5125241;28;20490;-76
2023/11/26 01:56:12;;;;;;;6.80;2.33;;;;;;;;;;5123466;28;20523;-77
2023/11/26 01:58:42;;;;;;;3.93;1.80;;;;;;;;;;5124623;28;20766;-76
2023/11/26 02:01:11;;;;;;;5.90;1.90;;;;;;;;;;5122827;28;20466;-76
2023/11/26 02:03:39;;;;;;;6.30;1.90;;;;;;;;;;5122532;28;20554;-76
2023/11/26 02:06:08;;;;;;;3.60;1.60;;;;;;;;;;5124050;28;20450;-76
2023/11/26 02:08:37;;;;;;;8.20;2.10;;;;;;;;;;5121306;28;20516;-75
2023/11/26 02:11:09;;;;;;;5.23;1.90;;;;;;;;;;5124418;28;20482;-75
2023/11/26 02:13:45;;;;;;;8.57;2.13;;;;;;;;;;5120276;28;20980;-76
2023/11/26 02:16:13;;;;;;;3.20;1.90;;;;;;;;;;5122032;28;20531;-76
2023/11/26 02:18:40;;;;;;;3.90;1.47;;;;;;;;;;5119931;28;20452;-77
2023/11/26 02:21:08;;;;;;;4.77;1.70;;;;;;;;;;5120026;28;20858;-76
2023/11/26 02:23:37;;;;;;;3.27;1.67;;;;;;;;;;5123297;27;20443;-77
2023/11/26 02:26:10;;;;;;;4.20;1.97;;;;;;;;;;5122072;28;20459;-76
2023/11/26 02:28:39;;;;;;;3.40;1.87;;;;;;;;;;5124750;27;20462;-76
2023/11/26 02:31:07;;;;;;;2.40;1.30;;;;;;;;;;5124652;27;20527;-76
2023/11/26 02:33:38;;;;;;;5.70;2.60;;;;;;;;;;5122244;28;20435;-75
2023/11/26 02:36:08;;;;;;;5.53;1.87;;;;;;;;;;5125030;28;20458;-77
2023/11/26 02:38:36;;;;;;;7.80;1.90;;;;;;;;;;5122945;28;20454;-77
2023/11/26 02:41:16;;;;;;;;;;;;;;;;;;;;;
2023/11/26 02:43:45;;;;;;;3.80;1.77;;;;;;;;;;5123216;28;20538;-77
2023/11/26 02:46:16;;;;;;;3.47;1.30;;;;;;;;;;5123682;28;20569;-76
2023/11/26 02:48:44;;;;;;;3.47;1.57;;;;;;;;;;5125396;28;20495;-75
2023/11/26 02:51:12;;;;;;;5.40;1.87;;;;;;;;;;5124112;28;20575;-77
2023/11/26 02:53:41;;;;;;;4.80;1.37;;;;;;;;;;5123636;28;20505;-77
2023/11/26 02:56:10;;;;;;;3.80;1.90;;;;;;;;;;5121587;28;20519;-76
2023/11/26 02:58:42;;;;;;;4.37;1.53;;;;;;;;;;5122022;28;20451;-77
2023/11/26 03:01:17;;;;;;;3.10;1.60;;;;;;;;;;5120783;28;20465;-77
2023/11/26 03:03:48;;;;;;;3.97;1.37;;;;;;;;;;5124426;28;20454;-77
2023/11/26 03:06:17;;;;;;;3.17;1.40;;;;;;;;;;5121561;28;20534;-77
2023/11/26 03:08:45;;;;;;;3.40;1.80;;;;;;;;;;5123159;28;20450;-75
2023/11/26 03:14:05;;;;;;;4.60;1.50;;;;;;;;;;5119782;28;20933;-77
2023/11/26 03:16:38;;;;;;;4.50;1.80;;;;;;;;;;5126527;28;20522;-77
2023/11/26 03:19:08;;;;;;;4.87;1.57;;;;;;;;;;5124428;28;20495;-77
2023/11/26 03:21:36;;;;;;;3.00;1.40;;;;;;;;;;5124105;28;20488;-76
2023/11/26 03:24:07;;;;;;;6.83;1.63;;;;;;;;;;5124821;28;20475;-75
2023/11/26 03:26:42;;;;;;;2.60;1.20;;;;;;;;;;5121591;28;20470;-77
2023/11/26 03:29:12;;;;;;;3.73;1.57;;;;;;;;;;5128004;28;20477;-77
2023/11/26 03:31:47;;;;;;;4.93;1.40;;;;;;;;;;5126166;28;20632;-77
2023/11/26 03:34:15;;;;;;;19.13;1.97;;;;;;;;;;5121791;28;20538;-77
2023/11/26 03:36:49;;;;;;;2.73;1.40;;;;;;;;;;5108527;28;20549;-77
2023/11/26 03:39:21;;;;;;;3.97;1.40;;;;;;;;;;5126552;28;20463;-77
2023/11/26 03:41:51;;;;;;;3.73;1.60;;;;;;;;;;5126518;28;20886;-75
2023/11/26 03:44:19;;;;;;;3.30;1.60;;;;;;;;;;5126154;28;20495;-77
2023/11/26 03:46:50;;;;;;;4.93;1.30;;;;;;;;;;5124759;28;20493;-77
2023/11/26 03:49:20;;;;;;;6.17;1.83;;;;;;;;;;5124748;28;20455;-77
2023/11/26 03:51:49;;;;;;;5.93;1.83;;;;;;;;;;5128141;28;20456;-77
2023/11/26 03:54:30;;;;;;;4.40;1.63;;;;;;;;;;5123570;28;20568;-77
2023/11/26 03:57:00;;;;;;;6.70;1.90;;;;;;;;;;5129338;28;20457;-77
2023/11/26 03:59:28;;;;;;;5.17;2.13;;;;;;;;;;5125668;28;20462;-78
2023/11/26 04:01:58;;;;;;;3.70;1.70;;;;;;;;;;5124644;28;20545;-77
2023/11/26 04:04:29;;;;;;;5.00;1.70;;;;;;;;;;5125592;28;20532;-78
2023/11/26 04:06:59;;;;;;;5.47;1.70;;;;;;;;;;5124411;28;20468;-76
2023/11/26 04:09:33;;;;;;;3.77;1.97;;;;;;;;;;5123634;28;20452;-77
2023/11/26 04:12:02;;;;;;;5.03;1.73;;;;;;;;;;5124814;28;20479;-77
2023/11/26 04:14:36;;;;;;;5.07;1.80;;;;;;;;;;5123213;28;20585;-78
2023/11/26 04:17:15;;;;;;;3.57;1.53;;;;;;;;;;5123802;28;20440;-76
2023/11/26 04:19:43;;;;;;;5.73;2.27;;;;;;;;;;5123275;28;20446;-77
2023/11/26 04:22:15;;;;;;;7.90;2.03;;;;;;;;;;5121752;28;20748;-77
2023/11/26 04:24:43;;;;;;;5.10;1.80;;;;;;;;;;5122537;28;20514;-77
2023/11/26 04:27:11;;;;;;;3.23;1.40;;;;;;;;;;5119355;28;20462;-77
2023/11/26 04:29:46;;;;;;;6.27;1.90;;;;;;;;;;5121271;28;20452;-76
2023/11/26 04:32:15;;;;;;;3.40;1.67;;;;;;;;;;5118891;28;20447;-76
2023/11/26 04:34:48;;;;;;;3.93;1.57;;;;;;;;;;5122116;28;20470;-77
2023/11/26 04:37:25;;;;;;;3.97;1.30;;;;;;;;;;5122898;28;20435;-76
2023/11/26 04:39:54;;;;;;;4.50;1.90;;;;;;;;;;5117258;28;20461;-76
2023/11/26 04:44:56;;;;;;;3.27;1.73;;;;;;;;;;5078700;28;20468;-78
2023/11/26 04:47:25;;;;;;;3.93;1.57;;;;;;;;;;5084362;28;20439;-77
2023/11/26 04:49:58;;;;;;;3.53;1.70;;;;;;;;;;5086876;28;20538;-78
2023/11/26 04:52:26;;;;;;;5.57;2.23;;;;;;;;;;5089466;28;20452;-77
2023/11/26 04:54:53;;;;;;;2.60;1.17;;;;;;;;;;5089601;28;20733;-78
2023/11/26 04:57:21;;;;;;;4.73;1.70;;;;;;;;;;5085175;28;20520;-79
2023/11/26 04:59:49;;;;;;;3.40;1.50;;;;;;;;;;5086862;28;20547;-78
2023/11/26 05:02:18;;;;;;;4.73;1.70;;;;;;;;;;5091369;28;20461;-76
2023/11/26 05:04:48;;;;;;;3.47;1.90;;;;;;;;;;5089452;28;20461;-77
2023/11/26 05:07:15;;;;;;;2.33;1.13;;;;;;;;;;5087489;28;20448;-78
2023/11/26 05:09:43;;;;;;;3.23;1.53;;;;;;;;;;5087586;28;20452;-78
2023/11/26 05:12:11;;;;;;;3.30;1.40;;;;;;;;;;5084964;28;20448;-78
2023/11/26 05:14:39;;;;;;;3.63;2.20;;;;;;;;;;5088787;28;20485;-78
2023/11/26 05:17:06;;;;;;;4.80;1.47;;;;;;;;;;5087109;28;20551;-77
2023/11/26 05:19:34;;;;;;;3.20;1.30;;;;;;;;;;5086795;28;20462;-79
2023/11/26 05:22:04;;;;;;;3.10;1.30;;;;;;;;;;5088839;28;20883;-76
2023/11/26 05:24:32;;;;;;;2.93;1.23;;;;;;;;;;5091274;28;20453;-78
2023/11/26 05:26:59;;;;;;;3.43;1.60;;;;;;;;;;5084330;28;20452;-77
2023/11/26 05:29:27;;;;;;;5.80;1.63;;;;;;;;;;5084873;28;20499;-79
2023/11/26 05:31:55;;;;;;;4.20;1.83;;;;;;;;;;5089851;28;20448;-77
2023/11/26 05:34:23;;;;;;;6.53;1.83;;;;;;;;;;5083523;28;21097;-77
2023/11/26 05:36:51;;;;;;;3.00;1.47;;;;;;;;;;5084679;28;20449;-77
2023/11/26 05:39:20;;;;;;;4.40;1.53;;;;;;;;;;5089091;28;20480;-78
2023/11/26 05:41:48;;;;;;;3.83;1.67;;;;;;;;;;5084667;28;20457;-77
2023/11/26 05:44:15;;;;;;;2.73;1.20;;;;;;;;;;5078433;28;20717;-77
2023/11/26 05:46:43;;;;;;;4.67;1.80;;;;;;;;;;5083057;28;20452;-78
2023/11/26 05:49:12;;;;;;;3.60;1.30;;;;;;;;;;5085825;28;20492;-77
2023/11/26 05:51:40;;;;;;;3.07;1.20;;;;;;;;;;5079343;28;20447;-78
2023/11/26 05:54:07;;;;;;;4.13;1.57;;;;;;;;;;5086566;28;20464;-77
2023/11/26 05:56:37;;;;;;;2.97;1.53;;;;;;;;;;5088605;28;20837;-77
2023/11/26 05:59:08;;;;;;;2.87;1.33;;;;;;;;;;5085775;28;20954;-78
2023/11/26 06:01:35;;;;;;;3.50;2.00;;;;;;;;;;5081984;28;20529;-77
2023/11/26 06:04:04;;;;;;;4.47;1.73;;;;;;;;;;5085696;28;20448;-78
2023/11/26 06:06:32;;;;;;;7.17;3.30;;;;;;;;;;5086719;28;20441;-77
2023/11/26 06:09:00;;;;;;;16.20;7.53;;;;;;;;;;5083805;28;20518;-78
2023/11/26 06:11:27;;;;;;;9.03;4.57;;;;;;;;;;5090035;28;20978;-78
2023/11/26 06:13:57;;;;;;;9.47;4.20;;;;;;;;;;5089102;28;20885;-77
2023/11/26 06:16:24;;;;;;;8.50;3.70;;;;;;;;;;5085924;28;20485;-77
2023/11/26 06:18:53;;;;;;;8.50;3.90;;;;;;;;;;5085858;28;20441;-78
2023/11/26 06:21:21;;;;;;;13.40;4.37;;;;;;;;;;5085681;28;20783;-77
2023/11/26 06:23:49;;;;;;;7.03;4.30;;;;;;;;;;5080988;28;20868;-78
2023/11/26 06:26:19;;;;;;;9.33;4.13;;;;;;;;;;5077326;28;20459;-76
2023/11/26 06:28:46;;;;;;;5.03;2.73;;;;;;;;;;5085547;28;20453;-78
2023/11/26 06:31:22;;;;;;;7.60;5.20;;;;;;;;;;5085595;28;20483;-78
2023/11/26 06:33:49;;;;;;;4.53;1.97;;;;;;;;;;5080224;28;20521;-78
2023/11/26 06:36:21;;;;;;;5.60;2.50;;;;;;;;;;5083389;28;20912;-78
2023/11/26 06:38:49;;;;;;;3.50;1.40;;;;;;;;;;5082713;28;20459;-77
2023/11/26 06:41:24;;;;;;;5.13;1.70;;;;;;;;;;5082899;28;20454;-79
2023/11/26 06:43:53;;;;;;;4.97;2.07;;;;;;;;;;5085665;28;20514;-78
2023/11/26 06:46:23;;;;;;;3.67;2.07;;;;;;;;;;5084771;28;20449;-79
2023/11/26 06:48:51;;;;;;;5.80;2.37;;;;;;;;;;5085862;28;20508;-76
2023/11/26 06:51:19;;;;;;;5.73;2.50;;;;;;;;;;5081434;28;20453;-78
2023/11/26 06:53:47;;;;;;;4.00;2.40;;;;;;;;;;5086940;28;20727;-78
2023/11/26 06:56:15;;;;;;;5.40;2.30;;;;;;;;;;5086581;28;20522;-79
2023/11/26 06:58:43;;;;;;;4.63;2.50;;;;;;;;;;5080939;28;20444;-78
2023/11/26 07:01:11;;;;;;;6.10;2.33;;;;;;;;;;5082754;28;20841;-78
2023/11/26 07:03:42;;;;;;;3.80;2.07;;;;;;;;;;5085198;28;20465;-77
2023/11/26 07:06:11;;;;;;;5.40;2.13;;;;;;;;;;5079740;28;20993;-77
2023/11/26 07:08:39;;;;;;;4.73;2.03;;;;;;;;;;5082355;28;20452;-78
2023/11/26 07:11:07;;;;;;;4.27;1.97;;;;;;;;;;5082845;28;20488;-78
2023/11/26 07:13:35;;;;;;;4.80;2.50;;;;;;;;;;5079551;28;20454;-78
2023/11/26 07:16:03;;;;;;;4.37;1.80;;;;;;;;;;5084614;28;20507;-78
2023/11/26 07:18:31;;;;;;;4.17;1.40;;;;;;;;;;5084662;28;20591;-78
2023/11/26 07:21:00;;;;;;;5.70;2.10;;;;;;;;;;5085244;28;20856;-77
2023/11/26 07:23:28;;;;;;;3.63;2.07;;;;;;;;;;5079082;28;20452;-78
2023/11/26 07:25:56;;;;;;;4.17;1.70;;;;;;;;;;5086539;28;20484;-76
2023/11/26 07:28:24;;;;;;;3.77;2.00;;;;;;;;;;5084782;28;20457;-77
2023/11/26 07:30:52;;;;;;;5.47;2.27;;;;;;;;;;5079110;28;20457;-77
2023/11/26 07:33:20;;;;;;;4.87;2.40;;;;;;;;;;5087069;28;20456;-77
2023/11/26 07:35:49;;;;;;;3.90;1.90;;;;;;;;;;5080952;28;20511;-78
2023/11/26 07:38:19;;;;;;;4.40;1.87;;;;;;;;;;5081066;28;20452;-78
2023/11/26 07:40:49;;;;;;;5.67;1.83;;;;;;;;;;5087525;28;20669;-78
2023/11/26 07:43:17;;;;;;;10.10;3.77;;;;;;;;;;5086454;28;20500;-78
2023/11/26 07:45:45;;;;;;;21.60;7.50;;;;;;;;;;5086827;28;20467;-77
2023/11/26 07:48:15;;;;;;;16.73;5.90;;;;;;;;;;5087260;28;20464;-77
2023/11/26 07:50:43;;;;;;;12.50;5.17;;;;;;;;;;5087000;28;20458;-78
2023/11/26 07:53:11;;;;;;;8.20;4.00;;;;;;;;;;5081143;28;20879;-79
2023/11/26 07:55:42;;;;;;;10.70;3.90;;;;;;;;;;5083756;28;20487;-78
2023/11/26 07:58:09;;;;;;;5.60;3.20;;;;;;;;;;5084497;28;20456;-78
2023/11/26 08:00:37;;;;;;;6.87;3.83;;;;;;;;;;5079567;28;20457;-78
2023/11/26 08:03:07;;;;;;;5.40;2.67;;;;;;;;;;5078965;28;20453;-77
2023/11/26 08:05:36;;;;;;;4.40;3.23;;;;;;;;;;5082362;28;20492;-78
2023/11/26 08:08:07;;;;;;;5.33;2.43;;;;;;;;;;5086041;28;20465;-77
2023/11/26 08:10:35;;;;;;;5.57;2.97;;;;;;;;;;5081473;28;20437;-77
2023/11/26 08:13:07;;;;;;;4.20;2.37;;;;;;;;;;5082900;28;20579;-77
2023/11/26 08:15:35;;;;;;;5.50;2.53;;;;;;;;;;5082363;28;20495;-78
2023/11/26 08:18:18;;;;;;;3.17;1.90;;;;;;;;;;5080425;28;20611;-77
2023/11/26 08:20:47;;;;;;;3.80;1.80;;;;;;;;;;5080316;28;20483;-77
2023/11/26 08:23:15;;;;;;;4.23;2.43;;;;;;;;;;5081520;28;20526;-76
2023/11/26 08:25:44;;;;;;;6.33;2.20;;;;;;;;;;5083949;28;20433;-77
2023/11/26 08:28:16;;;;;;;6.53;3.07;;;;;;;;;;5084594;28;20751;-78
2023/11/26 08:30:47;;;;;;;5.60;3.50;;;;;;;;;;5077772;28;20542;-77
2023/11/26 08:33:20;;;;;;;7.97;3.13;;;;;;;;;;5083649;28;20880;-78
2023/11/26 08:35:51;;;;;;;4.30;2.10;;;;;;;;;;5090167;28;20489;-78
2023/11/26 08:38:18;;;;;;;4.60;2.30;;;;;;;;;;5086584;28;20902;-77
2023/11/26 08:40:46;;;;;;;6.90;3.00;;;;;;;;;;5087999;28;20449;-77
2023/11/26 08:43:22;;;;;;;4.97;2.47;;;;;;;;;;5078654;28;20853;-78
2023/11/26 08:46:00;;;;;;;3.57;2.07;;;;;;;;;;5062407;28;20454;-77
2023/11/26 08:48:30;;;;;;;5.03;2.50;;;;;;;;;;5069138;28;20449;-78
2023/11/26 08:50:58;;;;;;;5.93;2.30;;;;;;;;;;5054267;28;20494;-77
2023/11/26 08:53:25;;;;;;;3.57;1.97;;;;;;;;;;5040699;28;20628;-78
2023/11/26 08:55:53;;;;;;;4.20;1.80;;;;;;;;;;5049596;28;20479;-77
2023/11/26 08:58:23;;;;;;;5.13;1.87;;;;;;;;;;5051127;28;20451;-79
2023/11/26 09:00:51;;;;;;;4.23;2.83;;;;;;;;;;5045999;28;20477;-78
2023/11/26 09:03:19;;;;;;;4.47;2.43;;;;;;;;;;5048011;28;20513;-78
2023/11/26 09:05:49;;;;;;;4.77;2.27;;;;;;;;;;5041765;28;20452;-78
2023/11/26 09:08:20;;;;;;;4.93;2.07;;;;;;;;;;5040592;28;20446;-77
2023/11/26 09:10:48;;;;;;;5.43;2.30;;;;;;;;;;5044034;28;20524;-78
2023/11/26 09:13:16;;;;;;;4.20;2.20;;;;;;;;;;5041942;28;20450;-78
2023/11/26 09:15:46;;;;;;;6.80;2.50;;;;;;;;;;5048537;28;20643;-78
2023/11/26 09:18:16;;;;;;;7.23;2.30;;;;;;;;;;5040383;28;20494;-76
2023/11/26 09:20:44;;;;;;;5.00;2.40;;;;;;;;;;5040628;28;20465;-76
2023/11/26 09:23:12;;;;;;;5.87;2.50;;;;;;;;;;5046212;28;20803;-78
2023/11/26 09:25:40;;;;;;;7.73;3.00;;;;;;;;;;5045390;28;20453;-78
2023/11/26 09:28:09;;;;;;;6.27;2.03;;;;;;;;;;5043618;28;20458;-77
2023/11/26 09:30:37;;;;;;;9.13;4.80;;;;;;;;;;5046182;28;20459;-78
2023/11/26 09:33:12;;;;;;;5.40;4.23;;;;;;;;;;5041283;28;20533;-78
2023/11/26 09:35:40;;;;;;;8.03;3.60;;;;;;;;;;5040748;28;20447;-78
2023/11/26 09:38:10;;;;;;;5.60;3.07;;;;;;;;;;5037830;28;20454;-77
2023/11/26 09:40:41;;;;;;;9.53;3.17;;;;;;;;;;5031378;28;20575;-77
2023/11/26 09:43:09;;;;;;;9.30;3.63;;;;;;;;;;5034993;28;20486;-77
2023/11/26 09:45:40;;;;;;;5.83;3.27;;;;;;;;;;5042058;28;20462;-78
2023/11/26 09:48:22;;;;;;;6.07;3.20;;;;;;;;;;5060734;28;20479;-78
2023/11/26 09:50:54;;;;;;;7.37;3.10;;;;;;;;;;5067139;28;20445;-77
2023/11/26 09:53:22;;;;;;;7.00;4.03;;;;;;;;;;5069470;28;20446;-78
2023/11/26 09:55:55;;;;;;;6.80;4.13;;;;;;;;;;5066253;28;20454;-78
2023/11/26 09:58:23;;;;;;;5.33;3.63;;;;;;;;;;5061752;28;20490;-77
2023/11/26 10:00:52;;;;;;;5.60;3.57;;;;;;;;;;5064885;28;20472;-77
2023/11/26 10:03:21;;;;;;;6.00;2.50;;;;;;;;;;5064978;28;20462;-78
2023/11/26 10:05:49;;;;;;;5.63;3.80;;;;;;;;;;5063185;28;21036;-78
2023/11/26 10:08:32;;;;;;;9.43;3.40;;;;;;;;;;5060755;28;20453;-78
2023/11/26 10:11:00;;;;;;;7.53;3.30;;;;;;;;;;5055965;28;20552;-75
2023/11/26 10:13:38;;;;;;;7.00;3.27;;;;;;;;;;5063965;28;20454;-78
2023/11/26 10:16:05;;;;;;;6.73;3.43;;;;;;;;;;5060888;28;20917;-78
2023/11/26 10:18:42;;;;;;;7.50;3.37;;;;;;;;;;5069984;28;20461;-78
2023/11/26 10:21:10;;;;;;;6.10;3.43;;;;;;;;;;5065452;28;21055;-77
2023/11/26 10:23:39;;;;;;;7.97;3.53;;;;;;;;;;5060588;28;20719;-77
2023/11/26 10:26:19;;;;;;;5.20;3.70;;;;;;;;;;5066849;28;20564;-77
2023/11/26 10:28:59;;;;;;;6.37;3.37;;;;;;;;;;5067778;28;20801;-77
2023/11/26 10:31:27;;;;;;;5.73;2.80;;;;;;;;;;5064823;28;20548;-77
2023/11/26 10:34:09;;;;;;;5.07;3.30;;;;;;;;;;5066569;28;20455;-77
2023/11/26 10:36:37;;;;;;;6.07;2.97;;;;;;;;;;5063817;28;20489;-77
2023/11/26 10:39:08;;;;;;;5.70;3.50;;;;;;;;;;5065674;28;20457;-78
2023/11/26 10:41:37;;;;;;;5.80;2.77;;;;;;;;;;5065886;28;20465;-78
2023/11/26 10:44:06;;;;;;;8.63;4.17;;;;;;;;;;5066230;28;20497;-78
2023/11/26 10:46:34;;;;;;;7.60;3.30;;;;;;;;;;5059848;28;20800;-78
2023/11/26 10:49:10;;;;;;;4.93;3.00;;;;;;;;;;5061736;28;20468;-78
2023/11/26 10:51:40;;;;;;;6.80;4.00;;;;;;;;;;5063246;28;20460;-77
2023/11/26 10:54:12;;;;;;;8.43;3.17;;;;;;;;;;5061918;28;20857;-79
2023/11/26 10:56:41;;;;;;;4.53;2.47;;;;;;;;;;5064350;28;20485;-79
2023/11/26 10:59:10;;;;;;;6.60;4.10;;;;;;;;;;5068634;28;20506;-78
2023/11/26 11:01:38;;;;;;;5.70;3.23;;;;;;;;;;5063311;28;20528;-78
2023/11/26 11:04:14;;;;;;;4.10;2.57;;;;;;;;;;5060947;28;20496;-78
2023/11/26 11:06:43;;;;;;;7.70;4.67;;;;;;;;;;5065909;28;20461;-79
2023/11/26 11:09:13;;;;;;;3.33;2.13;;;;;;;;;;5063383;28;20577;-79
2023/11/26 11:11:46;;;;;;;7.53;3.87;;;;;;;;;;5063775;28;20446;-79
2023/11/26 11:14:15;;;;;;;8.63;4.40;;;;;;;;;;5064617;28;20449;-77
2023/11/26 11:16:43;;;;;;;4.83;3.20;;;;;;;;;;5061292;28;20520;-78
2023/11/26 11:19:12;;;;;;;8.00;3.57;;;;;;;;;;5063068;28;20745;-79
2023/11/26 11:21:49;;;;;;;8.90;4.50;;;;;;;;;;5068420;28;20454;-79
2023/11/26 11:24:20;;;;;;;9.43;3.97;;;;;;;;;;5065126;28;20457;-79
2023/11/26 11:26:48;;;;;;;8.00;3.90;;;;;;;;;;5066139;28;20465;-78
2023/11/26 11:29:31;;;;;;;7.90;4.20;;;;;;;;;;5065269;28;20513;-79
2023/11/26 11:32:01;;;;;;;7.20;3.93;;;;;;;;;;5060556;28;20858;-78
2023/11/26 11:34:32;;;;;;;7.23;3.47;;;;;;;;;;5069311;28;20472;-78
2023/11/26 11:37:02;;;;;;;8.23;4.23;;;;;;;;;;5084180;28;20545;-78
2023/11/26 11:39:44;;;;;;;9.40;3.87;;;;;;;;;;5084331;28;20481;-79
2023/11/26 11:42:13;;;;;;;10.97;4.97;;;;;;;;;;5083189;28;20452;-79
2023/11/26 11:44:42;;;;;;;8.57;3.13;;;;;;;;;;5083194;28;20473;-79
2023/11/26 11:47:10;;;;;;;6.30;3.80;;;;;;;;;;5090010;28;20446;-77
2023/11/26 11:49:57;;;;;;;7.40;4.30;;;;;;;;;;5087116;28;20483;-78
2023/11/26 11:52:29;;;;;;;5.20;3.10;;;;;;;;;;5086491;28;20469;-78
2023/11/26 11:55:01;;;;;;;6.33;3.20;;;;;;;;;;5087157;28;20476;-79
2023/11/26 11:57:46;;;;;;;5.43;3.53;;;;;;;;;;5083262;28;21030;-77
2023/11/26 12:00:17;;;;;;;11.67;5.00;;;;;;;;;;5084659;28;20483;-78
2023/11/26 12:02:46;;;;;;;9.90;5.00;;;;;;;;;;5084551;28;20460;-78
2023/11/26 12:05:28;;;;;;;4.77;3.30;;;;;;;;;;5086054;28;20506;-78
2023/11/26 12:07:58;;;;;;;6.40;2.87;;;;;;;;;;5083571;28;20492;-79
2023/11/26 12:10:27;;;;;;;12.73;6.97;;;;;;;;;;5086842;28;20527;-78
2023/11/26 12:13:05;;;;;;;8.57;5.40;;;;;;;;;;5088666;28;20460;-78
2023/11/26 12:15:34;;;;;;;8.63;2.80;;;;;;;;;;5085782;28;20453;-78
2023/11/26 12:18:06;;;;;;;9.57;4.50;;;;;;;;;;5087302;28;20469;-77
2023/11/26 12:20:35;;;;;;;6.90;3.40;;;;;;;;;;5084786;28;20856;-77
2023/11/26 12:23:04;;;;;;;8.70;4.40;;;;;;;;;;5083177;28;20746;-77
2023/11/26 12:25:33;;;;;;;7.10;3.70;;;;;;;;;;5086838;28;20534;-77
2023/11/26 12:28:08;;;;;;;9.07;3.97;;;;;;;;;;5080898;28;20488;-77
2023/11/26 12:30:38;;;;;;;7.47;3.63;;;;;;;;;;5081092;28;20455;-77
2023/11/26 12:33:12;;;;;;;12.13;3.53;;;;;;;;;;5081614;28;20544;-77
2023/11/26 12:35:41;;;;;;;6.00;3.17;;;;;;;;;;5078866;28;20437;-78
2023/11/26 12:38:11;;;;;;;5.57;3.33;;;;;;;;;;5083674;28;20488;-79
2023/11/26 12:40:39;;;;;;;9.20;3.90;;;;;;;;;;5084488;28;20456;-77
2023/11/26 12:43:07;;;;;;;5.37;2.43;;;;;;;;;;5083217;28;20481;-79
2023/11/26 12:45:35;;;;;;;6.80;2.63;;;;;;;;;;5083744;28;20461;-78
2023/11/26 12:48:07;;;;;;;6.00;3.30;;;;;;;;;;5086274;28;20515;-77
2023/11/26 12:50:42;;;;;;;5.50;3.03;;;;;;;;;;5078225;28;20871;-78
2023/11/26 12:53:13;;;;;;;4.43;2.83;;;;;;;;;;5080300;28;20467;-78
2023/11/26 12:55:45;;;;;;;6.20;3.03;;;;;;;;;;5080661;28;20453;-78
2023/11/26 12:58:19;;;;;;;4.73;2.50;;;;;;;;;;5078602;28;20493;-77
2023/11/26 13:00:47;;;;;;;4.07;2.80;;;;;;;;;;5076485;28;20520;-78
2023/11/26 13:03:18;;;;;;;4.77;2.67;;;;;;;;;;5067215;28;20484;-78
2023/11/26 13:05:46;;;;;;;11.00;4.80;;;;;;;;;;5061929;28;20463;-78
2023/11/26 13:08:37;;;;;;;6.83;2.70;;;;;;;;;;5067644;28;20733;-78
2023/11/26 13:11:06;;;;;;;6.80;3.60;;;;;;;;;;5066110;28;20484;-78
2023/11/26 13:13:34;;;;;;;5.03;3.17;;;;;;;;;;5065165;28;20461;-78
2023/11/26 13:16:04;;;;;;;6.23;3.07;;;;;;;;;;5065157;28;20449;-78
2023/11/26 13:18:32;;;;;;;6.43;2.60;;;;;;;;;;5058019;28;20600;-79
2023/11/26 13:21:01;;;;;;;6.00;3.53;;;;;;;;;;5062261;28;20477;-79
2023/11/26 13:23:30;;;;;;;8.60;3.80;;;;;;;;;;5064843;28;20780;-79
2023/11/26 13:26:00;;;;;;;6.53;3.40;;;;;;;;;;5066581;28;20457;-78
2023/11/26 13:28:29;;;;;;;9.80;4.73;;;;;;;;;;5060543;28;20522;-79
2023/11/26 13:30:59;;;;;;;11.83;5.47;;;;;;;;;;5066009;28;20457;-77
2023/11/26 13:33:27;;;;;;;5.43;3.40;;;;;;;;;;5069054;28;20440;-77
2023/11/26 13:35:59;;;;;;;6.73;2.83;;;;;;;;;;5064090;28;20529;-78
2023/11/26 13:38:27;;;;;;;7.87;4.03;;;;;;;;;;5069327;28;20499;-78
2023/11/26 13:40:57;;;;;;;9.10;3.20;;;;;;;;;;5064336;28;20521;-80
2023/11/26 13:43:25;;;;;;;7.07;3.33;;;;;;;;;;5049302;28;20477;-78
2023/11/26 13:45:53;;;;;;;6.47;3.47;;;;;;;;;;5069969;28;20448;-78
2023/11/26 13:48:22;;;;;;;6.97;3.40;;;;;;;;;;5067033;28;20461;-78
2023/11/26 13:50:50;;;;;;;6.67;3.83;;;;;;;;;;5067061;28;20442;-78
2023/11/26 13:53:19;;;;;;;7.63;4.80;;;;;;;;;;5066428;28;20540;-78
2023/11/26 13:55:47;;;;;;;8.10;4.70;;;;;;;;;;5063633;28;20473;-79
2023/11/26 13:58:24;;;;;;;7.13;3.67;;;;;;;;;;5063570;28;20480;-77
2023/11/26 14:00:52;;;;;;;6.77;3.30;;;;;;;;;;5063456;28;20746;-78
2023/11/26 14:03:20;;;;;;;4.50;2.87;;;;;;;;;;5059703;28;20679;-79
2023/11/26 14:05:47;;;;;;;10.57;4.60;;;;;;;;;;5048135;28;20461;-79
2023/11/26 14:08:17;;;;;;;8.70;4.40;;;;;;;;;;5045489;28;20455;-80
2023/11/26 14:10:45;;;;;;;8.80;3.93;;;;;;;;;;5041743;28;20463;-79
2023/11/26 14:13:17;;;;;;;5.80;3.60;;;;;;;;;;5043822;28;20451;-78
2023/11/26 14:15:49;;;;;;;5.57;2.90;;;;;;;;;;5039978;28;20455;-78
2023/11/26 14:18:19;;;;;;;8.33;4.30;;;;;;;;;;5042408;28;20910;-78
2023/11/26 14:20:48;;;;;;;6.70;3.87;;;;;;;;;;5043660;28;20461;-78
2023/11/26 14:23:16;;;;;;;10.77;5.73;;;;;;;;;;5042310;28;20520;-78
2023/11/26 14:25:45;;;;;;;7.67;5.00;;;;;;;;;;5044191;28;20493;-78
2023/11/26 14:28:17;;;;;;;12.70;6.53;;;;;;;;;;5042460;28;20451;-78
2023/11/26 14:30:46;;;;;;;12.70;6.10;;;;;;;;;;5044792;28;20441;-78
2023/11/26 14:33:17;;;;;;;10.13;5.10;;;;;;;;;;5069878;28;20450;-78
2023/11/26 14:35:56;;;;;;;16.70;6.00;;;;;;;;;;5064820;28;20552;-78
2023/11/26 14:38:30;;;;;;;10.10;5.67;;;;;;;;;;5060854;28;20462;-78
2023/11/26 14:40:59;;;;;;;11.47;5.90;;;;;;;;;;5046030;28;20501;-78
2023/11/26 14:43:27;;;;;;;13.07;7.17;;;;;;;;;;5041132;28;20482;-77
2023/11/26 14:45:56;;;;;;;8.00;4.13;;;;;;;;;;5050097;28;20442;-77
2023/11/26 14:48:24;;;;;;;10.27;5.43;;;;;;;;;;5062084;28;20446;-78
2023/11/26 14:50:52;;;;;;;9.83;5.43;;;;;;;;;;5063052;28;20443;-78
2023/11/26 14:53:20;;;;;;;10.00;5.67;;;;;;;;;;5062693;28;20446;-78
2023/11/26 14:55:48;;;;;;;12.40;5.83;;;;;;;;;;5061310;28;20461;-78
2023/11/26 14:58:19;;;;;;;9.83;5.27;;;;;;;;;;5059520;28;20486;-78
2023/11/26 15:00:47;;;;;;;7.43;4.00;;;;;;;;;;5061312;28;20536;-77
2023/11/26 15:03:17;;;;;;;7.30;4.43;;;;;;;;;;5061668;28;20454;-79
2023/11/26 15:05:45;;;;;;;7.07;4.10;;;;;;;;;;5061332;28;20454;-78
2023/11/26 15:08:15;;;;;;;10.27;3.70;;;;;;;;;;5061065;28;20722;-79
2023/11/26 15:10:44;;;;;;;7.20;4.00;;;;;;;;;;5057280;28;20481;-79
2023/11/26 15:13:14;;;;;;;8.23;4.13;;;;;;;;;;5058701;28;20565;-79
2023/11/26 15:15:43;;;;;;;8.20;4.57;;;;;;;;;;5056341;28;20486;-78
2023/11/26 15:18:16;;;;;;;7.50;4.37;;;;;;;;;;5038114;28;20475;-78
2023/11/26 15:20:46;;;;;;;6.60;3.90;;;;;;;;;;5042069;28;20490;-78
2023/11/26 15:23:14;;;;;;;6.90;4.50;;;;;;;;;;5038107;28;20874;-79
2023/11/26 15:25:42;;;;;;;8.50;5.10;;;;;;;;;;5054136;28;20475;-78
2023/11/26 15:28:11;;;;;;;12.27;6.90;;;;;;;;;;5063990;28;20489;-78
2023/11/26 15:30:39;;;;;;;7.43;5.23;;;;;;;;;;5060040;28;20509;-77
2023/11/26 15:33:09;;;;;;;13.60;5.00;;;;;;;;;;5060504;28;20569;-78